CEB276 RPLL-VHHH
Flight info
| Callsign | CEB276 |
|---|---|
| Flight time | N/A |
| Altitude | 34000 |
| Route | RDVXCAB/06 CAB A461 NOMAN V533 BETTY BETY3A |
| Aircraft | A333/H-SDE3GHIJ2J3J5M1RVWXY/LB2D1 |
Departure
| Time | N/A |
|---|---|
| Airport | Ninoy Aquino International Airport (RPLL) |
Arrival
| Time | 2026-05-04 19:27 |
|---|---|
| Airport | Hong Kong International Airport (VHHH) |
| Time | Latitude | Longitude | Altitude | Speed | Heading |
|---|---|---|---|---|---|
| 2026-05-04 19:24 | 22.26332 | 113.76466 | 1697 ft | 210 kts | 34° |
| 2026-05-04 19:24 | 22.27233 | 113.77640 | 1681 ft | 206 kts | 67° |
| 2026-05-04 19:24 | 22.27742 | 113.79091 | 1675 ft | 208 kts | 73° |
| 2026-05-04 19:24 | 22.28105 | 113.80581 | 1673 ft | 208 kts | 73° |
| 2026-05-04 19:25 | 22.28599 | 113.82038 | 1600 ft | 204 kts | 71° |
| 2026-05-04 19:25 | 22.29054 | 113.83449 | 1443 ft | 196 kts | 72° |
| 2026-05-04 19:25 | 22.29486 | 113.84828 | 1081 ft | 190 kts | 72° |
| 2026-05-04 19:25 | 22.29904 | 113.86126 | 795 ft | 174 kts | 72° |
| 2026-05-04 19:26 | 22.30280 | 113.87289 | 583 ft | 155 kts | 70° |
| 2026-05-04 19:26 | 22.30622 | 113.88346 | 369 ft | 143 kts | 69° |
| 2026-05-04 19:26 | 22.30940 | 113.89313 | 181 ft | 135 kts | 70° |
| 2026-05-04 19:26 | 22.31253 | 113.90271 | 56 ft | 135 kts | 70° |
| 2026-05-04 19:27 | 22.31542 | 113.91183 | 39 ft | 93 kts | 71° |
| 2026-05-04 19:27 | 22.31626 | 113.91443 | 39 ft | 13 kts | 71° |
| 2026-05-04 19:27 | 22.31656 | 113.91589 | 39 ft | 22 kts | 88° |
| 2026-05-04 19:27 | 22.31645 | 113.91757 | 39 ft | 14 kts | 101° |
| 2026-05-04 19:28 | 22.31621 | 113.91886 | 39 ft | 21 kts | 101° |
| 2026-05-04 19:28 | 22.31631 | 113.92029 | 39 ft | 20 kts | 70° |
| 2026-05-04 19:28 | 22.31683 | 113.92187 | 39 ft | 25 kts | 72° |
| 2026-05-04 19:28 | 22.31738 | 113.92360 | 39 ft | 13 kts | 71° |
| 2026-05-04 19:29 | 22.31730 | 113.92417 | 39 ft | 3 kts | 141° |
| 2026-05-04 19:29 | 22.31697 | 113.92430 | 39 ft | 9 kts | 159° |
| 2026-05-04 19:29 | 22.31625 | 113.92468 | 39 ft | 14 kts | 139° |
| 2026-05-04 19:29 | 22.31586 | 113.92552 | 39 ft | 11 kts | 114° |
| 2026-05-04 19:30 | 22.31584 | 113.92558 | 39 ft | 0 kts | 114° |
| 2026-05-04 19:31 | 22.31582 | 113.92563 | 39 ft | 3 kts | 114° |
| 2026-05-04 19:31 | 22.31561 | 113.92611 | 39 ft | 10 kts | 116° |
| 2026-05-04 19:31 | 22.31551 | 113.92689 | 39 ft | 10 kts | 56° |
| 2026-05-04 19:31 | 22.31583 | 113.92711 | 39 ft | 6 kts | 27° |
| 2026-05-04 19:32 | 22.31599 | 113.92719 | 39 ft | 3 kts | 25° |
| 2026-05-04 19:32 | 22.31611 | 113.92725 | 39 ft | 0 kts | 25° |